createdAt,value
2023-05-12T00:00:08.487Z,13.20
2023-05-12T00:02:35.321Z,13.20
2023-05-12T00:05:02.295Z,13.20
2023-05-12T00:07:29.159Z,13.20
2023-05-12T00:09:55.934Z,13.10
2023-05-12T00:12:22.784Z,13.00
2023-05-12T00:14:49.547Z,13.00
2023-05-12T00:17:16.308Z,12.80
2023-05-12T00:19:44.120Z,12.80
2023-05-12T00:22:11.683Z,12.70
2023-05-12T00:24:39.814Z,12.70
2023-05-12T00:27:07.383Z,12.70
2023-05-12T00:29:34.573Z,12.70
2023-05-12T00:32:01.601Z,12.70
2023-05-12T00:34:28.684Z,12.60
2023-05-12T00:36:55.454Z,12.60
2023-05-12T00:39:22.897Z,12.60
2023-05-12T00:41:57.907Z,12.60
2023-05-12T00:44:24.720Z,12.50
2023-05-12T00:46:52.729Z,12.50
2023-05-12T00:49:20.456Z,12.50
2023-05-12T00:51:47.498Z,12.50
2023-05-12T00:54:14.443Z,12.50
2023-05-12T00:56:41.320Z,12.40
2023-05-12T00:59:08.786Z,12.40
2023-05-12T01:01:36.046Z,12.40
2023-05-12T01:04:03.216Z,12.40
2023-05-12T01:06:38.834Z,12.50
2023-05-12T01:09:06.198Z,12.50
2023-05-12T01:11:33.024Z,12.60
2023-05-12T01:13:59.789Z,12.60
2023-05-12T01:16:33.790Z,12.60
2023-05-12T01:19:03.934Z,12.40
2023-05-12T01:24:01.956Z,12.50
2023-05-12T01:26:29.938Z,12.50
2023-05-12T01:28:57.261Z,12.40
2023-05-12T01:31:25.043Z,12.40
2023-05-12T01:33:51.862Z,12.50
2023-05-12T01:36:18.551Z,12.50
2023-05-12T01:38:45.349Z,12.50
2023-05-12T01:41:12.143Z,12.50
2023-05-12T01:43:38.898Z,12.50
2023-05-12T01:46:05.743Z,12.60
2023-05-12T01:48:32.558Z,12.60
2023-05-12T01:51:02.357Z,12.60
2023-05-12T01:53:29.115Z,12.70
2023-05-12T01:55:55.868Z,12.70
2023-05-12T02:00:49.783Z,12.60
2023-05-12T02:03:16.675Z,12.60
2023-05-12T02:05:43.516Z,12.60
2023-05-12T02:08:10.527Z,12.60
2023-05-12T02:13:04.452Z,12.60
2023-05-12T02:15:31.844Z,12.70
2023-05-12T02:17:58.803Z,12.60
2023-05-12T02:22:52.956Z,12.70
2023-05-12T02:25:19.731Z,12.70
2023-05-12T02:27:46.610Z,12.70
2023-05-12T02:30:13.545Z,12.70
2023-05-12T02:32:40.481Z,12.70
2023-05-12T02:35:08.168Z,12.70
2023-05-12T02:37:34.927Z,12.70
2023-05-12T02:40:01.772Z,12.70
2023-05-12T02:42:33.739Z,12.70
2023-05-12T02:45:00.645Z,12.70
2023-05-12T02:47:31.374Z,12.70
2023-05-12T02:49:58.268Z,12.70
2023-05-12T02:52:25.072Z,12.60
2023-05-12T02:54:51.914Z,12.60
2023-05-12T02:57:18.758Z,12.60
2023-05-12T02:59:45.539Z,12.60
2023-05-12T03:02:12.444Z,12.60
2023-05-12T03:04:39.319Z,12.60
2023-05-12T03:07:06.113Z,12.60
2023-05-12T03:09:32.980Z,12.60
2023-05-12T03:11:59.711Z,12.60
2023-05-12T03:14:28.630Z,12.70
2023-05-12T03:16:55.543Z,12.70
2023-05-12T03:19:22.322Z,12.70
2023-05-12T03:21:49.094Z,12.70
2023-05-12T03:24:17.139Z,12.70
2023-05-12T03:26:43.914Z,12.70
2023-05-12T03:29:10.666Z,12.70
2023-05-12T03:31:37.563Z,12.70
2023-05-12T03:34:04.409Z,12.80
2023-05-12T03:36:31.473Z,12.70
2023-05-12T03:38:58.233Z,12.70
2023-05-12T03:41:24.969Z,12.70
2023-05-12T03:43:51.774Z,12.70
2023-05-12T03:46:18.626Z,12.70
2023-05-12T03:48:45.502Z,12.70
2023-05-12T03:51:12.292Z,12.70
2023-05-12T03:53:42.447Z,12.70
2023-05-12T03:56:09.350Z,12.70
2023-05-12T03:58:36.452Z,12.70
2023-05-12T04:01:03.300Z,12.70
2023-05-12T04:03:31.180Z,12.70
2023-05-12T04:05:59.519Z,12.70
2023-05-12T04:08:26.716Z,12.70
2023-05-12T04:10:58.706Z,12.70
2023-05-12T04:13:26.052Z,12.70
2023-05-12T04:15:55.746Z,12.70
2023-05-12T04:20:49.805Z,12.70
2023-05-12T04:23:16.740Z,12.70
2023-05-12T04:25:43.537Z,12.80
2023-05-12T04:28:12.079Z,12.80
2023-05-12T04:30:42.750Z,12.80
2023-05-12T04:33:09.983Z,12.80
2023-05-12T04:35:37.004Z,12.80
2023-05-12T04:38:04.495Z,12.80
2023-05-12T04:40:34.092Z,12.80
2023-05-12T04:43:01.579Z,12.80
2023-05-12T04:45:28.392Z,12.90
2023-05-12T04:47:55.163Z,12.80
2023-05-12T04:50:21.999Z,12.90
2023-05-12T04:52:48.888Z,12.90
2023-05-12T04:55:15.674Z,12.90
2023-05-12T04:57:42.449Z,12.90
2023-05-12T05:00:09.839Z,12.90
2023-05-12T05:02:36.732Z,13.00
2023-05-12T05:05:03.732Z,13.00
2023-05-12T05:09:57.919Z,13.00
2023-05-12T05:12:25.656Z,13.00
2023-05-12T05:14:52.524Z,13.00
2023-05-12T05:17:19.308Z,13.00
2023-05-12T05:19:57.444Z,13.10
2023-05-12T05:22:25.572Z,13.10
2023-05-12T05:24:52.667Z,13.10
2023-05-12T05:27:19.497Z,13.10
2023-05-12T05:29:46.459Z,13.20
2023-05-12T05:32:13.245Z,13.20
2023-05-12T05:34:40.088Z,13.30
2023-05-12T05:37:07.549Z,13.30
2023-05-12T05:42:01.522Z,13.40
2023-05-12T05:44:28.273Z,13.40
2023-05-12T05:46:55.091Z,13.40
2023-05-12T05:49:21.913Z,13.50
2023-05-12T05:51:48.652Z,13.50
2023-05-12T05:54:15.640Z,13.50
2023-05-12T05:56:42.421Z,13.60
2023-05-12T05:59:09.851Z,13.60
2023-05-12T06:01:36.887Z,13.70
2023-05-12T06:04:03.887Z,13.70
2023-05-12T06:06:31.362Z,13.70
2023-05-12T06:08:58.176Z,13.80
2023-05-12T06:11:24.950Z,13.80
2023-05-12T06:13:51.705Z,13.90
2023-05-12T06:16:18.708Z,13.90
2023-05-12T06:18:45.533Z,13.90
2023-05-12T06:21:12.335Z,13.90
2023-05-12T06:23:39.046Z,13.90
2023-05-12T06:26:07.785Z,14.00
2023-05-12T06:28:34.569Z,14.00
2023-05-12T06:31:01.343Z,14.10
2023-05-12T06:33:28.169Z,14.20
2023-05-12T06:35:55.105Z,14.20
2023-05-12T06:38:21.861Z,14.20
2023-05-12T06:40:48.669Z,14.20
2023-05-12T06:43:15.418Z,14.30
2023-05-12T06:45:43.110Z,14.40
2023-05-12T06:48:10.383Z,14.50
2023-05-12T06:50:37.241Z,14.50
2023-05-12T06:55:33.201Z,14.50
2023-05-12T06:57:59.997Z,14.60
2023-05-12T07:00:26.916Z,14.60
2023-05-12T07:02:53.871Z,14.60
2023-05-12T07:05:21.220Z,14.80
2023-05-12T07:07:48.261Z,14.90
2023-05-12T07:10:15.319Z,15.00
2023-05-12T07:12:42.215Z,15.10
2023-05-12T07:15:10.421Z,15.20
2023-05-12T07:17:37.335Z,15.30
2023-05-12T07:20:05.626Z,15.50
2023-05-12T07:27:27.113Z,15.60
2023-05-12T07:29:54.309Z,15.80
2023-05-12T07:32:21.067Z,15.80
2023-05-12T07:34:48.285Z,16.00
2023-05-12T07:37:15.015Z,16.20
2023-05-12T07:39:41.844Z,16.20
2023-05-12T07:42:09.049Z,16.40
2023-05-12T07:44:36.329Z,16.50
2023-05-12T07:47:03.256Z,16.60
2023-05-12T07:49:30.027Z,16.70
2023-05-12T07:51:56.795Z,16.80
2023-05-12T07:54:23.685Z,16.80
2023-05-12T07:56:50.607Z,16.90
2023-05-12T07:59:17.608Z,17.00
2023-05-12T08:01:44.444Z,17.10
2023-05-12T08:04:11.653Z,17.30
2023-05-12T08:06:38.493Z,17.30
2023-05-12T08:09:05.256Z,17.30
2023-05-12T08:11:32.095Z,17.30
2023-05-12T08:13:58.856Z,17.50
2023-05-12T08:16:25.758Z,17.50
2023-05-12T08:18:52.645Z,17.80
2023-05-12T08:21:19.429Z,17.80
2023-05-12T08:23:46.334Z,17.90
2023-05-12T08:28:40.318Z,18.00
2023-05-12T08:31:07.367Z,18.10
2023-05-12T08:33:37.003Z,18.10
2023-05-12T08:36:04.227Z,18.00
2023-05-12T08:38:32.477Z,17.90
2023-05-12T08:41:16.153Z,17.90
2023-05-12T08:43:45.542Z,17.90
2023-05-12T08:46:13.332Z,17.80
2023-05-12T08:48:41.356Z,17.80
2023-05-12T08:51:13.177Z,18.00
2023-05-12T08:53:41.560Z,18.00
2023-05-12T08:58:42.214Z,18.10
2023-05-12T09:01:12.190Z,18.10
2023-05-12T09:03:39.342Z,18.30
2023-05-12T09:06:07.254Z,18.50
2023-05-12T09:08:35.695Z,18.80
2023-05-12T09:11:03.265Z,19.00
2023-05-12T09:13:48.126Z,19.00
2023-05-12T09:16:17.906Z,19.20
2023-05-12T09:18:52.300Z,19.10
2023-05-12T09:21:19.889Z,19.20
2023-05-12T09:23:59.258Z,19.70
2023-05-12T09:26:28.191Z,19.70
2023-05-12T09:29:08.509Z,19.70
2023-05-12T09:31:35.838Z,19.90
2023-05-12T09:34:08.140Z,20.00
2023-05-12T09:36:35.297Z,19.90
2023-05-12T09:39:05.006Z,19.90
2023-05-12T09:41:35.028Z,19.90
2023-05-12T09:44:02.372Z,19.80
2023-05-12T09:46:29.264Z,20.00
2023-05-12T09:49:00.256Z,20.10
2023-05-12T09:51:27.729Z,20.10
2023-05-12T09:53:54.661Z,20.20
2023-05-12T09:56:22.024Z,20.70
2023-05-12T09:58:50.133Z,20.60
2023-05-12T10:01:24.012Z,20.50
2023-05-12T10:04:00.199Z,20.20
2023-05-12T10:06:28.463Z,20.30
2023-05-12T10:09:36.367Z,20.70
2023-05-12T10:12:04.645Z,21.00
2023-05-12T10:14:32.023Z,20.80
2023-05-12T10:17:00.271Z,20.50
2023-05-12T10:19:28.597Z,20.30
2023-05-12T10:21:57.441Z,20.50
2023-05-12T10:24:28.329Z,20.80
2023-05-12T10:26:56.561Z,21.00
2023-05-12T10:29:30.130Z,21.00
2023-05-12T10:31:57.994Z,21.00
2023-05-12T10:34:32.708Z,21.10
2023-05-12T10:36:59.773Z,21.30
2023-05-12T10:39:30.765Z,21.50
2023-05-12T10:42:07.323Z,21.70
2023-05-12T10:44:35.833Z,21.90
2023-05-12T10:47:13.314Z,22.00
2023-05-12T10:49:41.765Z,21.90
2023-05-12T10:52:11.864Z,22.10
2023-05-12T10:54:45.767Z,22.50
2023-05-12T10:57:21.093Z,22.40
2023-05-12T10:59:59.800Z,22.60
2023-05-12T11:02:36.052Z,22.70
2023-05-12T11:05:10.626Z,22.80
2023-05-12T11:07:37.965Z,23.00
2023-05-12T11:10:06.134Z,23.00
2023-05-12T11:12:38.285Z,22.90
2023-05-12T11:15:07.023Z,22.90
2023-05-12T11:17:37.720Z,22.90
2023-05-12T11:20:05.040Z,23.20
2023-05-12T11:22:32.066Z,23.20
2023-05-12T11:24:59.349Z,23.30
2023-05-12T11:27:26.374Z,23.30
2023-05-12T11:30:01.368Z,23.40
2023-05-12T11:32:29.616Z,23.50
2023-05-12T11:35:07.292Z,23.60
2023-05-12T11:37:40.991Z,23.60
2023-05-12T11:40:22.344Z,23.60
2023-05-12T11:42:52.638Z,23.60
2023-05-12T11:45:30.590Z,23.30
2023-05-12T11:48:14.942Z,23.20
2023-05-12T11:50:48.453Z,23.20
2023-05-12T11:53:17.408Z,23.30
2023-05-12T11:55:51.817Z,23.40
2023-05-12T11:58:21.964Z,23.40
2023-05-12T12:00:49.713Z,23.60
2023-05-12T12:03:17.071Z,23.70
2023-05-12T12:05:45.546Z,23.40
2023-05-12T12:08:16.219Z,23.50
2023-05-12T12:13:21.250Z,23.70
2023-05-12T12:15:49.152Z,23.80
2023-05-12T12:18:16.687Z,23.80
2023-05-12T12:20:44.031Z,23.70
2023-05-12T12:23:11.159Z,23.70
2023-05-12T12:25:37.983Z,23.70
2023-05-12T12:28:05.467Z,23.80
2023-05-12T12:30:32.242Z,23.80
2023-05-12T12:32:58.951Z,23.60
2023-05-12T12:35:25.819Z,23.60
2023-05-12T12:37:52.839Z,23.60
2023-05-12T12:40:20.192Z,23.70
2023-05-12T12:42:47.239Z,23.80
2023-05-12T12:50:10.490Z,23.80
2023-05-12T12:52:38.524Z,23.60
2023-05-12T12:55:08.673Z,24.00
2023-05-12T13:00:04.634Z,24.50
2023-05-12T13:02:31.561Z,24.20
2023-05-12T13:04:58.364Z,24.00
2023-05-12T13:07:25.128Z,23.90
2023-05-12T13:09:51.901Z,23.90
2023-05-12T13:12:18.638Z,24.10
2023-05-12T13:14:45.554Z,24.20
2023-05-12T13:19:39.502Z,24.10
2023-05-12T13:22:06.361Z,24.20
2023-05-12T13:24:33.173Z,24.30
2023-05-12T13:26:59.970Z,24.20
2023-05-12T13:29:26.797Z,24.30
2023-05-12T13:31:54.389Z,24.30
2023-05-12T13:36:48.668Z,24.40
2023-05-12T13:39:16.396Z,24.60
2023-05-12T13:41:44.008Z,24.50
2023-05-12T13:44:10.916Z,24.70
2023-05-12T13:46:37.859Z,24.70
2023-05-12T13:49:04.565Z,24.80
2023-05-12T13:51:32.410Z,24.70
2023-05-12T13:53:59.250Z,24.50
2023-05-12T13:56:26.062Z,24.40
2023-05-12T13:58:52.814Z,24.40
2023-05-12T14:01:19.805Z,24.60
2023-05-12T14:03:46.696Z,24.60
2023-05-12T14:06:13.510Z,24.50
2023-05-12T14:08:41.670Z,24.60
2023-05-12T14:11:09.096Z,24.60
2023-05-12T14:13:35.900Z,24.50
2023-05-12T14:16:02.795Z,24.50
2023-05-12T14:18:29.632Z,24.40
2023-05-12T14:20:57.097Z,24.40
2023-05-12T14:23:23.889Z,24.30
2023-05-12T14:25:50.652Z,24.30
2023-05-12T14:28:17.423Z,24.10
2023-05-12T14:30:45.204Z,24.00
2023-05-12T14:33:12.257Z,23.90
2023-05-12T14:35:39.077Z,24.00
2023-05-12T14:38:05.929Z,24.30
2023-05-12T14:40:32.674Z,24.20
2023-05-12T14:43:00.108Z,24.20
2023-05-12T14:45:27.196Z,24.00
2023-05-12T14:47:54.578Z,24.10
2023-05-12T14:50:21.715Z,24.10
2023-05-12T14:52:48.760Z,24.10
2023-05-12T14:55:17.243Z,24.20
2023-05-12T14:57:44.756Z,24.30
2023-05-12T15:00:13.361Z,24.10
2023-05-12T15:02:41.456Z,24.10
2023-05-12T15:05:09.769Z,24.10
2023-05-12T15:07:37.198Z,24.00
2023-05-12T15:10:04.716Z,23.90
2023-05-12T15:12:32.198Z,24.00
2023-05-12T15:15:04.416Z,24.00
2023-05-12T15:17:31.710Z,23.80
2023-05-12T15:19:58.678Z,23.70
2023-05-12T15:22:25.428Z,23.70
2023-05-12T15:24:52.192Z,23.70
2023-05-12T15:27:19.019Z,23.70
2023-05-12T15:29:45.847Z,23.70
2023-05-12T15:32:12.564Z,23.60
2023-05-12T15:34:39.464Z,23.60
2023-05-12T15:37:06.714Z,23.60
2023-05-12T15:39:33.572Z,23.50
2023-05-12T15:42:01.041Z,23.60
2023-05-12T15:44:27.925Z,23.60
2023-05-12T15:46:54.962Z,23.60
2023-05-12T15:49:21.900Z,23.50
2023-05-12T15:51:48.837Z,23.50
2023-05-12T15:54:15.748Z,23.70
2023-05-12T15:56:43.059Z,23.70
2023-05-12T15:59:11.403Z,23.80
2023-05-12T16:01:38.309Z,23.80
2023-05-12T16:04:05.230Z,23.60
2023-05-12T16:06:32.030Z,23.50
2023-05-12T16:08:58.863Z,23.30
2023-05-12T16:11:25.578Z,23.00
2023-05-12T16:13:53.270Z,23.00
2023-05-12T16:16:20.091Z,22.90
2023-05-12T16:18:47.027Z,22.80
2023-05-12T16:21:13.852Z,22.60
2023-05-12T16:23:40.675Z,22.60
2023-05-12T16:26:07.461Z,22.60
2023-05-12T16:28:34.661Z,22.70
2023-05-12T16:31:02.404Z,22.60
2023-05-12T16:33:29.363Z,22.60
2023-05-12T16:35:56.259Z,22.70
2023-05-12T16:38:23.228Z,22.60
2023-05-12T16:40:50.331Z,22.60
2023-05-12T16:43:17.093Z,22.60
2023-05-12T16:45:43.984Z,22.60
2023-05-12T16:48:10.695Z,22.60
2023-05-12T16:50:37.407Z,22.50
2023-05-12T16:53:04.180Z,22.40
2023-05-12T16:55:30.929Z,22.40
2023-05-12T16:57:57.764Z,22.40
2023-05-12T17:00:24.597Z,22.50
2023-05-12T17:02:51.500Z,22.40
2023-05-12T17:05:18.471Z,22.30
2023-05-12T17:07:46.037Z,22.30
2023-05-12T17:10:12.774Z,22.20
2023-05-12T17:12:39.565Z,22.20
2023-05-12T17:15:22.348Z,22.10
2023-05-12T17:17:49.155Z,22.00
2023-05-12T17:20:15.977Z,21.90
2023-05-12T17:22:47.097Z,21.90
2023-05-12T17:25:14.053Z,21.90
2023-05-12T17:27:40.806Z,21.90
2023-05-12T17:30:08.259Z,21.90
2023-05-12T17:32:35.118Z,21.80
2023-05-12T17:35:02.261Z,21.80
2023-05-12T17:37:30.378Z,21.90
2023-05-12T17:39:57.416Z,21.80
2023-05-12T17:42:24.379Z,21.80
2023-05-12T17:47:18.739Z,21.70
2023-05-12T17:49:45.513Z,21.70
2023-05-12T17:52:12.263Z,21.60
2023-05-12T17:54:39.036Z,21.50
2023-05-12T17:57:05.972Z,21.50
2023-05-12T17:59:32.690Z,21.40
2023-05-12T18:01:59.541Z,21.30
2023-05-12T18:04:26.431Z,21.30
2023-05-12T18:06:53.548Z,21.30
2023-05-12T18:09:20.662Z,21.30
2023-05-12T18:11:50.523Z,21.20
2023-05-12T18:14:18.099Z,21.10
2023-05-12T18:16:44.941Z,21.10
2023-05-12T18:19:11.788Z,21.00
2023-05-12T18:21:38.583Z,21.00
2023-05-12T18:24:05.582Z,20.90
2023-05-12T18:26:32.509Z,20.70
2023-05-12T18:28:59.466Z,20.70
2023-05-12T18:31:26.902Z,20.60
2023-05-12T18:33:53.754Z,20.60
2023-05-12T18:36:20.562Z,20.50
2023-05-12T18:38:47.570Z,20.50
2023-05-12T18:41:14.369Z,20.30
2023-05-12T18:43:43.047Z,20.10
2023-05-12T18:46:09.934Z,20.00
2023-05-12T18:48:36.672Z,19.90
2023-05-12T18:51:03.566Z,19.70
2023-05-12T18:53:30.371Z,19.70
2023-05-12T18:55:57.301Z,19.50
2023-05-12T19:00:51.349Z,18.80
2023-05-12T19:03:18.355Z,18.60
2023-05-12T19:05:46.316Z,18.60
2023-05-12T19:08:13.247Z,18.20
2023-05-12T19:10:40.287Z,18.20
2023-05-12T19:13:07.306Z,18.10
2023-05-12T19:15:34.285Z,17.80
2023-05-12T19:18:01.104Z,17.70
2023-05-12T19:20:29.064Z,17.50
2023-05-12T19:22:56.036Z,17.10
2023-05-12T19:25:23.121Z,17.10
2023-05-12T19:27:50.929Z,16.90
2023-05-12T19:30:17.949Z,16.90
2023-05-12T19:32:46.041Z,16.90
2023-05-12T19:35:16.702Z,16.70
2023-05-12T19:37:43.952Z,16.60
2023-05-12T19:40:11.305Z,16.50
2023-05-12T19:42:38.167Z,16.30
2023-05-12T19:45:05.794Z,16.30
2023-05-12T19:47:33.397Z,16.20
2023-05-12T19:50:00.898Z,15.90
2023-05-12T19:52:30.674Z,15.70
2023-05-12T19:54:57.594Z,15.70
2023-05-12T19:57:24.444Z,15.60
2023-05-12T19:59:51.439Z,15.50
2023-05-12T20:02:18.440Z,15.50
2023-05-12T20:04:45.616Z,15.60
2023-05-12T20:07:12.597Z,15.60
2023-05-12T20:09:39.298Z,15.50
2023-05-12T20:12:08.016Z,15.40
2023-05-12T20:14:35.682Z,15.30
2023-05-12T20:17:05.710Z,15.10
2023-05-12T20:19:33.625Z,15.00
2023-05-12T20:22:00.656Z,14.90
2023-05-12T20:24:27.756Z,14.90
2023-05-12T20:26:55.002Z,14.50
2023-05-12T20:29:22.295Z,14.50
2023-05-12T20:31:50.930Z,14.40
2023-05-12T20:34:18.867Z,14.40
2023-05-12T20:36:46.590Z,14.20
2023-05-12T20:39:15.077Z,14.10
2023-05-12T20:41:43.236Z,14.00
2023-05-12T20:44:10.421Z,14.00
2023-05-12T20:46:38.717Z,14.00
2023-05-12T20:49:06.299Z,14.00
2023-05-12T20:51:33.364Z,14.00
2023-05-12T20:54:00.385Z,13.90
2023-05-12T20:56:27.378Z,13.80
2023-05-12T20:58:54.206Z,13.70
2023-05-12T21:01:21.063Z,13.50
2023-05-12T21:03:47.887Z,13.50
2023-05-12T21:06:14.727Z,13.50
2023-05-12T21:08:41.609Z,13.50
2023-05-12T21:11:26.931Z,13.50
2023-05-12T21:13:53.714Z,13.60
2023-05-12T21:16:21.080Z,13.20
2023-05-12T21:18:48.350Z,13.30
2023-05-12T21:21:15.182Z,13.20
2023-05-12T21:23:41.953Z,13.20
2023-05-12T21:26:10.369Z,13.20
2023-05-12T21:28:37.520Z,13.20
2023-05-12T21:31:04.286Z,13.20
2023-05-12T21:33:31.077Z,13.10
2023-05-12T21:35:58.437Z,13.10
2023-05-12T21:38:25.253Z,13.10
2023-05-12T21:40:52.786Z,13.10
2023-05-12T21:43:19.655Z,13.00
2023-05-12T21:45:46.484Z,13.00
2023-05-12T21:48:13.294Z,12.80
2023-05-12T21:50:40.200Z,12.70
2023-05-12T21:53:06.955Z,12.70
2023-05-12T21:55:33.724Z,12.80
2023-05-12T21:58:00.425Z,12.70
2023-05-12T22:00:27.626Z,12.80
2023-05-12T22:02:54.355Z,12.90
2023-05-12T22:05:21.197Z,12.90
2023-05-12T22:07:48.231Z,12.70
2023-05-12T22:10:15.047Z,12.70
2023-05-12T22:12:41.778Z,12.80
2023-05-12T22:15:08.839Z,12.90
2023-05-12T22:17:35.862Z,13.10
2023-05-12T22:20:02.724Z,13.10
2023-05-12T22:22:29.482Z,13.00
2023-05-12T22:24:57.402Z,13.00
2023-05-12T22:27:24.125Z,12.90
2023-05-12T22:29:50.923Z,13.00
2023-05-12T22:32:17.769Z,13.10
2023-05-12T22:34:44.517Z,13.20
2023-05-12T22:37:11.264Z,13.20
2023-05-12T22:42:06.125Z,13.40
2023-05-12T22:44:32.869Z,13.30
2023-05-12T22:46:59.706Z,13.30
2023-05-12T22:49:26.554Z,13.30
2023-05-12T22:51:53.346Z,13.40
2023-05-12T22:54:20.069Z,13.40
2023-05-12T22:56:46.772Z,13.50
2023-05-12T22:59:13.705Z,13.60
2023-05-12T23:01:40.545Z,13.60
2023-05-12T23:04:07.388Z,13.70
2023-05-12T23:06:34.236Z,13.80
2023-05-12T23:09:01.125Z,13.80
2023-05-12T23:11:27.929Z,13.80
2023-05-12T23:13:54.675Z,13.80
2023-05-12T23:16:23.520Z,13.80
2023-05-12T23:18:50.479Z,13.80
2023-05-12T23:21:17.338Z,13.80
2023-05-12T23:23:44.078Z,13.80
2023-05-12T23:26:10.981Z,13.80
2023-05-12T23:28:37.744Z,13.80
2023-05-12T23:31:04.488Z,13.70
2023-05-12T23:33:31.830Z,13.70
2023-05-12T23:35:58.697Z,13.70
2023-05-12T23:38:25.565Z,13.70
2023-05-12T23:40:52.236Z,13.70
2023-05-12T23:43:19.000Z,13.70
2023-05-12T23:45:45.934Z,13.70
2023-05-12T23:48:12.683Z,13.60
2023-05-12T23:50:39.496Z,13.60
2023-05-12T23:53:06.409Z,13.60
2023-05-12T23:55:33.155Z,13.60
2023-05-12T23:58:00.063Z,13.50
